createdAt,value
2022-09-03T00:00:09.145Z, 37.71
2022-09-03T00:01:09.169Z, 37.95
2022-09-03T00:02:09.252Z, 37.72
2022-09-03T00:03:09.318Z, 37.75
2022-09-03T00:04:09.268Z, 37.81
2022-09-03T00:05:09.297Z, 37.72
2022-09-03T00:06:09.367Z, 37.73
2022-09-03T00:07:09.370Z, 37.77
2022-09-03T00:08:09.408Z, 37.66
2022-09-03T00:09:09.434Z, 37.83
2022-09-03T00:10:09.544Z, 37.75
2022-09-03T00:11:09.527Z, 37.80
2022-09-03T00:12:09.529Z, 37.81
2022-09-03T00:13:09.546Z, 37.68
2022-09-03T00:14:09.647Z, 37.85
2022-09-03T00:15:09.710Z, 37.59
2022-09-03T00:16:09.802Z, 37.50
2022-09-03T00:17:09.754Z, 37.58
2022-09-03T00:18:09.747Z, 37.65
2022-09-03T00:19:09.742Z, 37.72
2022-09-03T00:20:09.781Z, 37.84
2022-09-03T00:21:09.848Z, 37.74
2022-09-03T00:22:09.919Z, 37.82
2022-09-03T00:23:09.902Z, 37.82
2022-09-03T00:24:14.067Z, 37.79
2022-09-03T00:25:09.946Z, 37.71
2022-09-03T00:26:09.994Z, 37.85
2022-09-03T00:27:10.000Z, 37.72
2022-09-03T00:28:10.113Z, 37.77
2022-09-03T00:29:10.101Z, 37.77
2022-09-03T00:30:10.138Z, 37.69
2022-09-03T00:31:10.248Z, 38.02
2022-09-03T00:32:10.232Z, 37.71
2022-09-03T00:33:10.267Z, 37.68
2022-09-03T00:34:10.299Z, 37.60
2022-09-03T00:35:10.380Z, 37.74
2022-09-03T00:36:10.357Z, 37.62
2022-09-03T00:37:14.418Z, 37.64
2022-09-03T00:38:10.417Z, 38.02
2022-09-03T00:39:10.456Z, 37.75
2022-09-03T00:40:10.562Z, 37.80
2022-09-03T00:41:10.542Z, 37.88
2022-09-03T00:42:10.540Z, 37.66
2022-09-03T00:43:10.564Z, 37.80
2022-09-03T00:44:10.598Z, 37.84
2022-09-03T00:45:10.637Z, 37.78
2022-09-03T00:46:10.842Z, 37.77
2022-09-03T00:47:10.741Z, 37.85
2022-09-03T00:48:10.725Z, 37.83
2022-09-03T00:49:10.756Z, 37.75
2022-09-03T00:50:10.789Z, 37.73
2022-09-03T00:51:10.887Z, 37.82
2022-09-03T00:52:10.873Z, 37.73
2022-09-03T00:53:10.879Z, 37.77
2022-09-03T00:54:10.931Z, 37.69
2022-09-03T00:55:10.968Z, 37.75
2022-09-03T00:56:11.056Z, 37.77
2022-09-03T00:57:11.043Z, 37.75
2022-09-03T00:58:11.069Z, 37.70
2022-09-03T00:59:11.082Z, 37.70
2022-09-03T01:00:11.133Z, 37.68
2022-09-03T01:01:11.210Z, 37.77
2022-09-03T01:02:11.343Z, 37.63
2022-09-03T01:03:11.253Z, 37.73
2022-09-03T01:04:11.276Z, 37.81
2022-09-03T01:05:11.301Z, 37.71
2022-09-03T01:06:11.336Z, 37.59
2022-09-03T01:07:11.359Z, 37.69
2022-09-03T01:08:11.391Z, 37.61
2022-09-03T01:09:11.424Z, 37.74
2022-09-03T01:10:11.508Z, 37.67
2022-09-03T01:11:11.501Z, 37.82
2022-09-03T01:12:11.518Z, 37.81
2022-09-03T01:13:11.545Z, 37.74
2022-09-03T01:14:11.562Z, 37.68
2022-09-03T01:15:11.597Z, 37.93
2022-09-03T01:16:11.707Z, 37.57
2022-09-03T01:17:11.686Z, 37.53
2022-09-03T01:18:11.774Z, 37.56
2022-09-03T01:19:11.820Z, 37.62
2022-09-03T01:20:11.793Z, 37.74
2022-09-03T01:21:11.814Z, 37.79
2022-09-03T01:22:11.845Z, 37.58
2022-09-03T01:23:11.964Z, 37.69
2022-09-03T01:24:11.938Z, 37.56
2022-09-03T01:25:11.965Z, 37.63
2022-09-03T01:26:12.014Z, 37.53
2022-09-03T01:27:12.025Z, 37.77
2022-09-03T01:28:12.108Z, 37.62
2022-09-03T01:29:12.085Z, 37.73
2022-09-03T01:30:12.175Z, 37.68
2022-09-03T01:31:12.261Z, 37.74
2022-09-03T01:32:12.241Z, 37.71
2022-09-03T01:33:12.259Z, 37.74
2022-09-03T01:34:12.246Z, 37.60
2022-09-03T01:35:12.283Z, 37.83
2022-09-03T01:36:12.389Z, 37.95
2022-09-03T01:37:12.365Z, 37.88
2022-09-03T01:38:12.387Z, 37.75
2022-09-03T01:39:12.421Z, 37.61
2022-09-03T01:40:12.523Z, 37.62
2022-09-03T01:41:12.519Z, 37.85
2022-09-03T01:42:12.563Z, 37.72
2022-09-03T01:43:12.555Z, 37.86
2022-09-03T01:44:12.613Z, 37.69
2022-09-03T01:45:12.648Z, 37.85
2022-09-03T01:46:12.754Z, 37.91
2022-09-03T01:47:13.257Z, 37.80
2022-09-03T01:48:12.787Z, 37.71
2022-09-03T01:49:12.770Z, 37.84
2022-09-03T01:50:12.778Z, 37.94
2022-09-03T01:51:12.871Z, 37.85
2022-09-03T01:52:12.864Z, 37.81
2022-09-03T01:53:12.901Z, 37.77
2022-09-03T01:54:20.681Z, 37.69
2022-09-03T01:55:12.965Z, 37.83
2022-09-03T01:56:12.996Z, 37.87
2022-09-03T01:57:35.011Z, 37.75
2022-09-03T01:58:13.114Z, 37.82
2022-09-03T01:59:13.120Z, 37.80
2022-09-03T02:00:13.130Z, 37.85
2022-09-03T02:01:13.234Z, 37.98
2022-09-03T02:02:13.309Z, 37.80
2022-09-03T02:03:13.253Z, 37.81
2022-09-03T02:04:13.273Z, 38.05
2022-09-03T02:05:13.311Z, 38.06
2022-09-03T02:06:13.337Z, 37.86
2022-09-03T02:07:13.360Z, 37.90
2022-09-03T02:08:13.397Z, 37.96
2022-09-03T02:09:13.441Z, 38.01
2022-09-03T02:10:13.471Z, 37.63
2022-09-03T02:11:13.517Z, 37.70
2022-09-03T02:12:13.522Z, 37.94
2022-09-03T02:13:13.560Z, 38.06
2022-09-03T02:14:13.602Z, 37.94
2022-09-03T02:15:13.602Z, 37.88
2022-09-03T02:16:13.760Z, 37.95
2022-09-03T02:17:13.684Z, 37.74
2022-09-03T02:18:13.782Z, 37.86
2022-09-03T02:19:13.786Z, 37.75
2022-09-03T02:20:13.773Z, 37.85
2022-09-03T02:21:13.811Z, 37.84
2022-09-03T02:22:13.839Z, 37.91
2022-09-03T02:23:13.857Z, 37.87
2022-09-03T02:24:13.924Z, 37.80
2022-09-03T02:25:13.988Z, 37.77
2022-09-03T02:26:13.963Z, 37.79
2022-09-03T02:27:13.977Z, 37.87
2022-09-03T02:28:17.125Z, 37.82
2022-09-03T02:29:14.066Z, 37.87
2022-09-03T02:30:14.077Z, 38.00
2022-09-03T02:31:14.191Z, 37.95
2022-09-03T02:32:14.151Z, 37.86
2022-09-03T02:33:14.180Z, 37.96
2022-09-03T02:34:14.213Z, 37.82
2022-09-03T02:35:14.260Z, 37.82
2022-09-03T02:36:14.263Z, 37.79
2022-09-03T02:37:14.275Z, 37.66
2022-09-03T02:38:14.315Z, 37.86
2022-09-03T02:39:14.349Z, 37.75
2022-09-03T02:40:14.455Z, 37.68
2022-09-03T02:41:14.435Z, 37.80
2022-09-03T02:42:14.527Z, 37.74
2022-09-03T02:43:14.553Z, 38.05
2022-09-03T02:44:14.538Z, 37.88
2022-09-03T02:45:14.565Z, 37.88
2022-09-03T02:46:14.666Z, 37.82
2022-09-03T02:47:14.627Z, 37.91
2022-09-03T02:48:14.664Z, 37.78
2022-09-03T02:49:14.742Z, 37.84
2022-09-03T02:50:14.786Z, 37.74
2022-09-03T02:51:14.793Z, 38.08
2022-09-03T02:52:14.816Z, 37.79
2022-09-03T02:53:14.880Z, 37.90
2022-09-03T02:54:18.928Z, 37.90
2022-09-03T02:55:14.893Z, 37.86
2022-09-03T02:56:14.932Z, 37.97
2022-09-03T02:57:14.986Z, 37.89
2022-09-03T02:58:15.114Z, 37.89
2022-09-03T02:59:15.084Z, 37.96
2022-09-03T03:00:15.068Z, 37.76
2022-09-03T03:01:23.906Z, 37.80
2022-09-03T03:02:15.392Z, 37.77
2022-09-03T03:03:15.183Z, 37.90
2022-09-03T03:04:15.185Z, 37.95
2022-09-03T03:05:15.218Z, 37.64
2022-09-03T03:06:15.253Z, 37.65
2022-09-03T03:07:15.297Z, 37.65
2022-09-03T03:08:15.478Z, 37.82
2022-09-03T03:09:15.442Z, 37.92
2022-09-03T03:10:15.398Z, 37.90
2022-09-03T03:11:15.423Z, 37.82
2022-09-03T03:12:15.467Z, 37.94
2022-09-03T03:13:15.490Z, 37.90
2022-09-03T03:14:15.520Z, 37.78
2022-09-03T03:15:15.616Z, 37.73
2022-09-03T03:16:15.723Z, 37.78
2022-09-03T03:17:15.705Z, 37.92
2022-09-03T03:18:15.779Z, 37.90
2022-09-03T03:19:15.717Z, 37.97
2022-09-03T03:20:15.739Z, 37.89
2022-09-03T03:21:15.781Z, 37.87
2022-09-03T03:22:15.794Z, 37.82
2022-09-03T03:23:15.899Z, 37.69
2022-09-03T03:24:15.936Z, 37.88
2022-09-03T03:25:15.978Z, 37.88
2022-09-03T03:26:15.949Z, 38.01
2022-09-03T03:27:15.978Z, 37.77
2022-09-03T03:28:16.073Z, 38.02
2022-09-03T03:29:16.034Z, 38.07
2022-09-03T03:30:16.123Z, 37.82
2022-09-03T03:31:16.159Z, 37.96
2022-09-03T03:32:16.155Z, 37.80
2022-09-03T03:33:16.244Z, 37.76
2022-09-03T03:34:16.246Z, 37.87
2022-09-03T03:35:16.232Z, 37.82
2022-09-03T03:36:16.259Z, 37.92
2022-09-03T03:37:16.289Z, 37.75
2022-09-03T03:38:16.398Z, 37.86
2022-09-03T03:39:16.540Z, 37.91
2022-09-03T03:40:16.498Z, 37.76
2022-09-03T03:41:16.475Z, 37.84
2022-09-03T03:42:16.491Z, 37.81
2022-09-03T03:43:16.509Z, 37.88
2022-09-03T03:44:16.549Z, 37.94
2022-09-03T03:45:16.618Z, 38.02
2022-09-03T03:46:16.692Z, 37.85
2022-09-03T03:47:16.706Z, 37.86
2022-09-03T03:48:16.684Z, 37.85
2022-09-03T03:49:16.713Z, 37.90
2022-09-03T03:50:16.827Z, 38.07
2022-09-03T03:51:16.846Z, 37.82
2022-09-03T03:52:16.819Z, 37.90
2022-09-03T03:53:16.847Z, 37.90
2022-09-03T03:54:17.612Z, 37.88
2022-09-03T03:55:16.961Z, 37.93
2022-09-03T03:56:17.000Z, 37.96
2022-09-03T03:57:17.067Z, 37.95
2022-09-03T03:58:17.138Z, 37.95
2022-09-03T03:59:17.128Z, 37.87
2022-09-03T04:00:17.130Z, 38.04
2022-09-03T04:01:17.246Z, 37.98
2022-09-03T04:02:17.268Z, 37.73
2022-09-03T04:03:17.239Z, 37.85
2022-09-03T04:04:17.331Z, 37.95
2022-09-03T04:05:17.367Z, 37.94
2022-09-03T04:06:17.351Z, 38.01
2022-09-03T04:07:17.357Z, 38.27
2022-09-03T04:08:17.433Z, 38.20
2022-09-03T04:09:17.454Z, 37.92
2022-09-03T04:10:17.487Z, 37.94
2022-09-03T04:11:17.474Z, 38.04
2022-09-03T04:12:17.505Z, 38.14
2022-09-03T04:13:17.537Z, 38.03
2022-09-03T04:14:17.571Z, 38.30
2022-09-03T04:15:17.607Z, 37.96
2022-09-03T04:16:17.700Z, 38.08
2022-09-03T04:17:20.053Z, 38.02
2022-09-03T04:18:17.707Z, 38.05
2022-09-03T04:19:17.758Z, 37.94
2022-09-03T04:20:17.806Z, 38.15
2022-09-03T04:21:17.904Z, 38.07
2022-09-03T04:22:17.887Z, 38.08
2022-09-03T04:23:17.903Z, 38.09
2022-09-03T04:24:17.944Z, 38.00
2022-09-03T04:25:17.976Z, 37.98
2022-09-03T04:26:18.031Z, 37.96
2022-09-03T04:27:18.114Z, 38.08
2022-09-03T04:28:18.148Z, 38.38
2022-09-03T04:29:18.126Z, 38.02
2022-09-03T04:30:18.148Z, 37.97
2022-09-03T04:31:18.317Z, 38.07
2022-09-03T04:32:18.235Z, 38.03
2022-09-03T04:33:18.234Z, 38.26
2022-09-03T04:34:18.283Z, 38.01
2022-09-03T04:35:18.333Z, 38.16
2022-09-03T04:36:18.368Z, 38.05
2022-09-03T04:37:18.401Z, 38.15
2022-09-03T04:38:18.458Z, 38.05
2022-09-03T04:39:18.516Z, 38.00
2022-09-03T04:40:18.489Z, 38.10
2022-09-03T04:41:18.528Z, 37.95
2022-09-03T04:42:18.558Z, 38.00
2022-09-03T04:43:18.598Z, 38.03
2022-09-03T04:44:18.682Z, 38.18
2022-09-03T04:45:18.753Z, 38.01
2022-09-03T04:46:18.767Z, 37.96
2022-09-03T04:47:18.737Z, 37.86
2022-09-03T04:48:18.845Z, 38.00
2022-09-03T04:49:18.799Z, 38.13
2022-09-03T04:50:18.839Z, 38.06
2022-09-03T04:51:18.888Z, 38.03
2022-09-03T04:52:18.921Z, 38.09
2022-09-03T04:53:18.959Z, 38.12
2022-09-03T04:54:18.989Z, 37.98
2022-09-03T04:55:19.012Z, 38.07
2022-09-03T04:56:19.100Z, 37.93
2022-09-03T04:57:19.093Z, 37.99
2022-09-03T04:58:19.150Z, 37.39
2022-09-03T04:59:19.159Z, 37.29
2022-09-03T05:00:19.234Z, 37.44
2022-09-03T05:01:19.395Z, 37.40
2022-09-03T05:02:19.268Z, 37.42
2022-09-03T05:03:19.270Z, 37.42
2022-09-03T05:04:19.330Z, 37.33
2022-09-03T05:05:19.377Z, 37.35
2022-09-03T05:06:19.395Z, 37.27
2022-09-03T05:07:20.361Z, 37.51
2022-09-03T05:08:19.538Z, 37.33
2022-09-03T05:09:19.505Z, 37.39
2022-09-03T05:10:19.523Z, 37.40
2022-09-03T05:11:19.559Z, 37.16
2022-09-03T05:12:19.649Z, 37.22
2022-09-03T05:13:19.631Z, 37.45
2022-09-03T05:14:19.647Z, 37.30
2022-09-03T05:15:19.693Z, 37.17
2022-09-03T05:16:19.835Z, 37.21
2022-09-03T05:17:19.779Z, 37.26
2022-09-03T05:18:19.799Z, 37.41
2022-09-03T05:19:19.830Z, 37.50
2022-09-03T05:20:19.933Z, 37.56
2022-09-03T05:21:19.907Z, 37.41
2022-09-03T05:22:19.959Z, 37.39
2022-09-03T05:23:20.000Z, 37.58
2022-09-03T05:24:20.098Z, 37.39
2022-09-03T05:25:20.100Z, 37.59
2022-09-03T05:26:20.163Z, 37.52
2022-09-03T05:27:20.157Z, 37.21
2022-09-03T05:28:20.200Z, 37.25
2022-09-03T05:29:20.188Z, 37.29
2022-09-03T05:30:20.239Z, 37.34
2022-09-03T05:31:20.368Z, 37.33
2022-09-03T05:32:20.323Z, 37.51
2022-09-03T05:33:20.376Z, 37.30
2022-09-03T05:34:20.396Z, 37.46
2022-09-03T05:35:25.357Z, 37.29
2022-09-03T05:36:20.449Z, 37.49
2022-09-03T05:37:20.480Z, 37.42
2022-09-03T05:38:20.519Z, 37.32
2022-09-03T05:39:20.634Z, 37.37
2022-09-03T05:40:20.665Z, 37.34
2022-09-03T05:41:20.709Z, 37.29
2022-09-03T05:42:20.694Z, 37.16
2022-09-03T05:43:20.712Z, 37.46
2022-09-03T05:44:20.738Z, 37.33
2022-09-03T05:45:20.867Z, 37.36
2022-09-03T05:46:20.815Z, 37.28
2022-09-03T05:47:20.901Z, 37.36
2022-09-03T05:48:20.895Z, 37.31
2022-09-03T05:49:20.911Z, 37.27
2022-09-03T05:50:20.932Z, 37.47
2022-09-03T05:51:20.972Z, 37.34
2022-09-03T05:52:21.015Z, 37.45
2022-09-03T05:53:21.054Z, 37.52
2022-09-03T05:54:21.101Z, 37.29
2022-09-03T05:55:21.121Z, 37.43
2022-09-03T05:56:21.172Z, 37.41
2022-09-03T05:57:21.207Z, 37.27
2022-09-03T05:58:21.300Z, 37.44
2022-09-03T05:59:21.281Z, 37.27
2022-09-03T06:00:21.295Z, 37.26
2022-09-03T06:01:21.360Z, 37.39
2022-09-03T06:02:21.528Z, 37.55
2022-09-03T06:03:21.572Z, 37.36
2022-09-03T06:04:21.430Z, 37.41
2022-09-03T06:05:21.480Z, 37.37
2022-09-03T06:06:21.550Z, 37.43
2022-09-03T06:07:21.541Z, 37.40
2022-09-03T06:08:21.612Z, 37.33
2022-09-03T06:09:23.372Z, 37.34
2022-09-03T06:10:25.703Z, 37.49
2022-09-03T06:11:21.730Z, 37.36
2022-09-03T06:12:21.718Z, 37.48
2022-09-03T06:13:21.781Z, 37.50
2022-09-03T06:14:21.748Z, 37.66
2022-09-03T06:15:21.793Z, 37.27
2022-09-03T06:16:29.075Z, 37.52
2022-09-03T06:17:21.841Z, 37.42
2022-09-03T06:18:21.920Z, 37.49
2022-09-03T06:19:21.914Z, 37.48
2022-09-03T06:20:21.945Z, 37.37
2022-09-03T06:21:21.970Z, 37.38
2022-09-03T06:22:22.026Z, 37.39
2022-09-03T06:23:22.021Z, 37.24
2022-09-03T06:24:22.133Z, 37.60
2022-09-03T06:25:22.104Z, 37.51
2022-09-03T06:26:22.188Z, 37.47
2022-09-03T06:27:22.180Z, 37.42
2022-09-03T06:28:23.335Z, 37.43
2022-09-03T06:29:22.265Z, 37.51
2022-09-03T06:30:22.260Z, 37.32
2022-09-03T06:31:22.371Z, 37.42
2022-09-03T06:32:22.383Z, 37.49
2022-09-03T06:33:22.450Z, 37.32
2022-09-03T06:34:22.411Z, 37.57
2022-09-03T06:35:22.442Z, 37.44
2022-09-03T06:36:22.539Z, 37.32
2022-09-03T06:37:22.553Z, 37.29
2022-09-03T06:38:22.537Z, 37.36
2022-09-03T06:39:22.750Z, 37.40
2022-09-03T06:40:22.617Z, 37.63
2022-09-03T06:41:22.697Z, 37.43
2022-09-03T06:42:22.681Z, 37.36
2022-09-03T06:43:22.693Z, 37.36
2022-09-03T06:44:22.730Z, 37.42
2022-09-03T06:45:22.832Z, 37.52
2022-09-03T06:46:22.814Z, 37.37
2022-09-03T06:47:22.905Z, 37.45
2022-09-03T06:48:22.970Z, 37.46
2022-09-03T06:49:22.932Z, 37.34
2022-09-03T06:50:22.961Z, 37.54
2022-09-03T06:51:22.999Z, 37.54
2022-09-03T06:52:23.013Z, 37.53
2022-09-03T06:53:23.050Z, 37.62
2022-09-03T06:54:23.079Z, 37.56
2022-09-03T06:55:23.110Z, 37.52
2022-09-03T06:56:23.203Z, 37.43
2022-09-03T06:57:23.192Z, 37.43
2022-09-03T06:58:23.277Z, 37.73
2022-09-03T06:59:23.300Z, 37.54
2022-09-03T07:00:23.367Z, 37.49
2022-09-03T07:01:23.503Z, 37.54
2022-09-03T07:02:23.504Z, 37.51
2022-09-03T07:03:23.416Z, 37.66
2022-09-03T07:04:23.474Z, 37.57
2022-09-03T07:05:23.472Z, 37.68
2022-09-03T07:06:23.492Z, 37.61
2022-09-03T07:07:23.531Z, 37.63
2022-09-03T07:08:23.584Z, 37.78
2022-09-03T07:09:23.648Z, 37.76
2022-09-03T07:10:23.709Z, 37.64
2022-09-03T07:11:23.659Z, 37.51
2022-09-03T07:12:23.698Z, 37.60
2022-09-03T07:13:23.785Z, 37.54
2022-09-03T07:14:23.759Z, 37.53
2022-09-03T07:15:23.776Z, 37.46
2022-09-03T07:16:23.928Z, 37.58
2022-09-03T07:17:23.866Z, 37.53
2022-09-03T07:18:23.929Z, 37.58
2022-09-03T07:19:23.976Z, 37.59
2022-09-03T07:20:23.951Z, 37.60
2022-09-03T07:21:24.034Z, 37.50
2022-09-03T07:22:24.009Z, 37.63
2022-09-03T07:23:24.046Z, 37.54
2022-09-03T07:24:24.076Z, 37.55
2022-09-03T07:25:24.108Z, 37.63
2022-09-03T07:26:24.194Z, 37.56
2022-09-03T07:27:24.194Z, 37.63
2022-09-03T07:28:24.346Z, 37.58
2022-09-03T07:29:24.237Z, 37.66
2022-09-03T07:30:24.269Z, 37.62
2022-09-03T07:31:24.332Z, 37.40
2022-09-03T07:32:24.427Z, 37.63
2022-09-03T07:33:24.539Z, 37.81
2022-09-03T07:34:25.649Z, 37.60
2022-09-03T07:35:24.679Z, 37.59
2022-09-03T07:36:24.679Z, 37.66
2022-09-03T07:37:24.680Z, 37.66
2022-09-03T07:38:24.757Z, 37.61
2022-09-03T07:39:24.762Z, 37.58
2022-09-03T07:40:24.707Z, 37.67
2022-09-03T07:41:27.073Z, 37.70
2022-09-03T07:42:24.825Z, 37.65
2022-09-03T07:43:24.826Z, 37.52
2022-09-03T07:44:24.850Z, 37.58
2022-09-03T07:45:24.962Z, 37.60
2022-09-03T07:46:25.057Z, 37.67
2022-09-03T07:47:27.028Z, 37.71
2022-09-03T07:48:25.269Z, 37.65
2022-09-03T07:49:25.105Z, 38.15
2022-09-03T07:50:25.108Z, 37.78
2022-09-03T07:51:25.111Z, 37.76
2022-09-03T07:52:25.131Z, 37.86
2022-09-03T07:53:25.247Z, 37.73
2022-09-03T07:54:25.248Z, 37.81
2022-09-03T07:55:25.249Z, 37.73
2022-09-03T07:56:25.252Z, 37.68
2022-09-03T07:57:25.275Z, 37.77
2022-09-03T07:58:25.495Z, 37.86
2022-09-03T07:59:25.387Z, 37.87
2022-09-03T08:00:25.484Z, 38.08
2022-09-03T08:01:25.383Z, 37.76
2022-09-03T08:02:25.409Z, 37.62
2022-09-03T08:03:25.505Z, 37.80
2022-09-03T08:04:25.479Z, 37.66
2022-09-03T08:05:25.472Z, 37.81
2022-09-03T08:06:25.647Z, 38.06
2022-09-03T08:07:25.650Z, 37.75
2022-09-03T08:08:25.667Z, 37.78
2022-09-03T08:09:25.817Z, 37.76
2022-09-03T08:10:25.820Z, 37.70
2022-09-03T08:11:25.824Z, 37.71
2022-09-03T08:12:25.990Z, 38.00
2022-09-03T08:13:27.091Z, 37.76
2022-09-03T08:14:25.990Z, 38.07
2022-09-03T08:15:25.992Z, 37.94
2022-09-03T08:16:26.073Z, 37.81
2022-09-03T08:17:25.989Z, 37.92
2022-09-03T08:18:26.068Z, 37.19
2022-09-03T08:19:26.163Z, 37.31
2022-09-03T08:20:26.165Z, 37.26
2022-09-03T08:21:26.170Z, 37.22
2022-09-03T08:22:26.172Z, 37.16
2022-09-03T08:23:26.168Z, 37.00
2022-09-03T08:24:26.303Z, 37.06
2022-09-03T08:25:26.304Z, 37.10
2022-09-03T08:26:26.304Z, 37.11
2022-09-03T08:27:26.438Z, 36.93
2022-09-03T08:28:26.433Z, 37.04
2022-09-03T08:29:26.442Z, 37.12
2022-09-03T08:30:26.470Z, 37.08
2022-09-03T08:31:26.558Z, 37.08
2022-09-03T08:32:26.608Z, 37.29
2022-09-03T08:33:26.613Z, 37.13
2022-09-03T08:34:26.613Z, 37.15
2022-09-03T08:35:26.777Z, 37.08
2022-09-03T08:36:26.648Z, 37.19
2022-09-03T08:37:26.646Z, 37.06
2022-09-03T08:38:26.849Z, 37.19
2022-09-03T08:39:26.839Z, 37.12
2022-09-03T08:40:26.785Z, 37.04
2022-09-03T08:41:26.786Z, 37.08
2022-09-03T08:42:26.958Z, 37.15
2022-09-03T08:43:26.957Z, 37.13
2022-09-03T08:44:26.957Z, 37.21
2022-09-03T08:45:26.959Z, 37.40
2022-09-03T08:46:27.013Z, 37.19
2022-09-03T08:47:26.957Z, 37.28
2022-09-03T08:48:27.298Z, 37.13
2022-09-03T08:49:27.128Z, 37.15
2022-09-03T08:50:27.134Z, 37.23
2022-09-03T08:51:27.132Z, 37.20
2022-09-03T08:52:27.132Z, 37.12
2022-09-03T08:53:27.134Z, 37.05
2022-09-03T08:54:27.134Z, 37.11
2022-09-03T08:55:27.305Z, 37.42
2022-09-03T08:56:27.311Z, 37.19
2022-09-03T08:57:27.310Z, 37.24
2022-09-03T08:58:27.480Z, 37.10
2022-09-03T08:59:32.826Z, 37.16
2022-09-03T09:00:27.476Z, 37.19
2022-09-03T09:01:27.506Z, 37.17
2022-09-03T09:02:27.596Z, 37.21
2022-09-03T09:03:27.481Z, 37.15
2022-09-03T09:04:27.483Z, 37.10
2022-09-03T09:05:27.656Z, 36.95
2022-09-03T09:06:27.651Z, 37.13
2022-09-03T09:07:27.651Z, 37.21
2022-09-03T09:08:27.655Z, 37.18
2022-09-03T09:09:27.654Z, 37.30
2022-09-03T09:10:27.651Z, 37.20
2022-09-03T09:11:27.713Z, 37.17
2022-09-03T09:12:27.936Z, 37.08
2022-09-03T09:13:27.715Z, 37.47
2022-09-03T09:14:27.719Z, 37.20
2022-09-03T09:15:27.714Z, 37.39
2022-09-03T09:16:27.818Z, 37.20
2022-09-03T09:17:27.822Z, 37.32
2022-09-03T09:18:27.819Z, 37.38
2022-09-03T09:19:27.857Z, 37.06
2022-09-03T09:20:27.894Z, 37.10
2022-09-03T09:21:27.936Z, 37.27
2022-09-03T09:22:27.956Z, 37.07
2022-09-03T09:23:27.982Z, 37.43
2022-09-03T09:24:27.996Z, 37.23
2022-09-03T09:25:28.039Z, 37.20
2022-09-03T09:26:28.086Z, 37.15
2022-09-03T09:27:28.124Z, 37.22
2022-09-03T09:28:28.144Z, 37.45
2022-09-03T09:29:28.181Z, 37.27
2022-09-03T09:30:28.213Z, 37.27
2022-09-03T09:31:28.330Z, 37.28
2022-09-03T09:32:28.271Z, 37.14
2022-09-03T09:33:28.317Z, 37.20
2022-09-03T09:34:28.403Z, 37.13
2022-09-03T09:35:28.389Z, 37.36
2022-09-03T09:36:28.434Z, 37.17
2022-09-03T09:37:28.445Z, 37.38
2022-09-03T09:38:28.470Z, 37.48
2022-09-03T09:39:28.664Z, 37.40
2022-09-03T09:40:28.523Z, 37.15
2022-09-03T09:41:29.854Z, 37.13
2022-09-03T09:42:28.669Z, 37.49
2022-09-03T09:43:28.649Z, 37.35
2022-09-03T09:44:28.690Z, 37.34
2022-09-03T09:45:28.722Z, 37.16
2022-09-03T09:46:28.841Z, 37.13
2022-09-03T09:47:28.835Z, 37.21
2022-09-03T09:48:28.835Z, 37.13
2022-09-03T09:49:28.832Z, 37.15
2022-09-03T09:50:28.852Z, 37.33
2022-09-03T09:51:28.885Z, 37.20
2022-09-03T09:52:28.926Z, 37.48
2022-09-03T09:53:28.952Z, 37.41
2022-09-03T09:54:28.977Z, 37.14
2022-09-03T09:55:29.004Z, 37.11
2022-09-03T09:56:29.047Z, 36.98
2022-09-03T09:57:29.081Z, 37.23
2022-09-03T09:58:29.274Z, 37.36
2022-09-03T09:59:29.170Z, 36.93
2022-09-03T10:00:29.190Z, 36.77
2022-09-03T10:01:29.291Z, 36.84
2022-09-03T10:02:29.350Z, 36.81
2022-09-03T10:03:29.329Z, 36.88
2022-09-03T10:04:33.034Z, 36.92
2022-09-03T10:05:29.331Z, 37.08
2022-09-03T10:06:29.377Z, 37.07
2022-09-03T10:07:29.404Z, 37.00
2022-09-03T10:08:29.461Z, 36.94
2022-09-03T10:09:31.501Z, 36.79
2022-09-03T10:10:29.481Z, 37.04
2022-09-03T10:11:29.539Z, 36.98
2022-09-03T10:12:29.638Z, 36.96
2022-09-03T10:13:29.625Z, 36.83
2022-09-03T10:14:29.653Z, 36.88
2022-09-03T10:15:29.738Z, 37.14
2022-09-03T10:16:29.692Z, 36.85
2022-09-03T10:17:37.076Z, 36.72
2022-09-03T10:18:30.109Z, 36.73
2022-09-03T10:19:29.792Z, 36.80
2022-09-03T10:20:29.840Z, 36.90
2022-09-03T10:21:29.874Z, 36.66
2022-09-03T10:22:35.237Z, 36.67
2022-09-03T10:23:29.950Z, 36.72
2022-09-03T10:24:29.968Z, 36.86
2022-09-03T10:25:29.998Z, 36.86
2022-09-03T10:26:30.057Z, 36.79
2022-09-03T10:27:30.068Z, 36.95
2022-09-03T10:28:30.165Z, 36.82
2022-09-03T10:29:30.249Z, 36.88
2022-09-03T10:30:30.156Z, 36.81
2022-09-03T10:31:30.279Z, 36.96
2022-09-03T10:32:34.011Z, 36.76
2022-09-03T10:33:30.243Z, 37.09
2022-09-03T10:34:30.273Z, 36.77
2022-09-03T10:35:30.375Z, 36.80
2022-09-03T10:36:30.362Z, 36.80
2022-09-03T10:37:30.396Z, 36.72
2022-09-03T10:38:30.499Z, 36.85
2022-09-03T10:39:30.566Z, 36.98
2022-09-03T10:40:30.544Z, 36.94
2022-09-03T10:41:30.531Z, 37.06
2022-09-03T10:42:30.545Z, 37.07
2022-09-03T10:43:30.640Z, 37.02
2022-09-03T10:44:30.695Z, 36.92
2022-09-03T10:45:30.673Z, 36.87
2022-09-03T10:46:30.706Z, 36.98
2022-09-03T10:47:30.706Z, 37.02
2022-09-03T10:48:30.741Z, 37.04
2022-09-03T10:49:30.809Z, 37.09
2022-09-03T10:50:30.869Z, 36.90
2022-09-03T10:51:30.905Z, 37.10
2022-09-03T10:52:30.975Z, 36.88
2022-09-03T10:53:30.944Z, 37.01
2022-09-03T10:54:30.933Z, 36.90
2022-09-03T10:55:31.019Z, 37.07
2022-09-03T10:56:30.998Z, 36.98
2022-09-03T10:57:31.016Z, 37.05
2022-09-03T10:58:31.129Z, 37.01
2022-09-03T10:59:31.130Z, 37.21
2022-09-03T11:00:31.135Z, 36.96
2022-09-03T11:01:31.222Z, 36.90
2022-09-03T11:02:31.222Z, 37.13
2022-09-03T11:03:31.227Z, 36.99
2022-09-03T11:04:31.264Z, 37.11
2022-09-03T11:05:31.356Z, 36.91
2022-09-03T11:06:31.406Z, 37.20
2022-09-03T11:07:31.442Z, 37.06
2022-09-03T11:08:31.419Z, 36.90
2022-09-03T11:09:31.511Z, 37.04
2022-09-03T11:10:31.546Z, 37.18
2022-09-03T11:11:31.556Z, 37.03
2022-09-03T11:12:31.562Z, 36.91
2022-09-03T11:13:31.591Z, 37.03
2022-09-03T11:14:31.640Z, 37.31
2022-09-03T11:15:31.836Z, 37.35
2022-09-03T11:16:31.759Z, 37.20
2022-09-03T11:17:32.234Z, 37.03
2022-09-03T11:18:31.809Z, 36.96
2022-09-03T11:19:31.796Z, 37.00
2022-09-03T11:20:31.882Z, 37.25
2022-09-03T11:21:31.877Z, 36.88
2022-09-03T11:22:31.908Z, 36.91
2022-09-03T11:23:31.939Z, 37.17
2022-09-03T11:24:32.018Z, 37.25
2022-09-03T11:25:32.016Z, 37.18
2022-09-03T11:26:32.032Z, 37.09
2022-09-03T11:27:32.050Z, 37.03
2022-09-03T11:28:32.109Z, 36.93
2022-09-03T11:29:32.156Z, 37.26
2022-09-03T11:30:32.210Z, 37.20
2022-09-03T11:31:32.250Z, 37.24
2022-09-03T11:32:32.246Z, 37.24
2022-09-03T11:33:32.278Z, 37.15
2022-09-03T11:34:32.932Z, 37.16
2022-09-03T11:35:32.365Z, 37.01
2022-09-03T11:36:32.376Z, 37.26
2022-09-03T11:37:32.397Z, 37.32
2022-09-03T11:38:32.415Z, 37.07
2022-09-03T11:39:32.621Z, 37.13
2022-09-03T11:40:32.526Z, 37.08
2022-09-03T11:41:32.507Z, 37.08
2022-09-03T11:42:32.538Z, 37.38
2022-09-03T11:43:32.576Z, 37.05
2022-09-03T11:44:32.634Z, 37.11
2022-09-03T11:45:32.742Z, 37.09
2022-09-03T11:46:32.827Z, 37.33
2022-09-03T11:47:32.729Z, 37.14
2022-09-03T11:48:32.745Z, 37.61
2022-09-03T11:49:32.834Z, 37.56
2022-09-03T11:50:32.916Z, 37.36
2022-09-03T11:51:32.913Z, 37.36
2022-09-03T11:52:32.901Z, 37.34
2022-09-03T11:53:32.923Z, 37.27
2022-09-03T11:54:32.970Z, 37.28
2022-09-03T11:55:38.207Z, 37.22
2022-09-03T11:56:33.023Z, 37.30
2022-09-03T11:57:33.051Z, 37.18
2022-09-03T11:58:33.142Z, 37.41
2022-09-03T11:59:33.140Z, 37.37
2022-09-03T12:00:33.173Z, 37.16
2022-09-03T12:01:33.218Z, 37.16
2022-09-03T12:02:33.328Z, 37.50
2022-09-03T12:03:33.293Z, 37.28
2022-09-03T12:04:33.342Z, 37.28
2022-09-03T12:05:33.322Z, 37.65
2022-09-03T12:06:33.367Z, 37.38
2022-09-03T12:07:33.466Z, 37.21
2022-09-03T12:08:33.502Z, 37.30
2022-09-03T12:09:33.481Z, 37.60
2022-09-03T12:10:33.532Z, 37.55
2022-09-03T12:11:33.578Z, 37.30
2022-09-03T12:12:33.564Z, 37.34
2022-09-03T12:13:33.597Z, 37.27
2022-09-03T12:14:33.682Z, 37.80
2022-09-03T12:15:33.718Z, 37.31
2022-09-03T12:16:33.694Z, 37.46
2022-09-03T12:17:33.713Z, 37.22
2022-09-03T12:18:33.743Z, 37.27
2022-09-03T12:19:33.803Z, 37.41
2022-09-03T12:20:33.835Z, 37.18
2022-09-03T12:21:33.895Z, 37.61
2022-09-03T12:22:33.916Z, 37.60
2022-09-03T12:23:33.958Z, 37.43
2022-09-03T12:24:37.848Z, 37.45
2022-09-03T12:25:34.028Z, 37.37
2022-09-03T12:26:34.100Z, 37.50
2022-09-03T12:27:34.086Z, 37.19
2022-09-03T12:28:34.107Z, 37.25